sensor_id;sensor_type;location;lat;lon;timestamp;P1;durP1;ratioP1;P2;durP2;ratioP2
71790;SDS011;59638;52.126;5.434;2023-10-13T00:00:38;14.07;;;6.95;;
71790;SDS011;59638;52.126;5.434;2023-10-13T00:03:07;14.00;;;6.27;;
71790;SDS011;59638;52.126;5.434;2023-10-13T00:05:45;12.93;;;6.25;;
71790;SDS011;59638;52.126;5.434;2023-10-13T00:08:11;12.13;;;6.45;;
71790;SDS011;59638;52.126;5.434;2023-10-13T00:10:39;15.48;;;6.65;;
71790;SDS011;59638;52.126;5.434;2023-10-13T00:13:06;10.95;;;6.15;;
71790;SDS011;59638;52.126;5.434;2023-10-13T00:15:42;8.37;;;5.83;;
71790;SDS011;59638;52.126;5.434;2023-10-13T00:18:24;8.30;;;5.82;;
71790;SDS011;59638;52.126;5.434;2023-10-13T00:20:53;10.68;;;5.72;;
71790;SDS011;59638;52.126;5.434;2023-10-13T00:23:23;18.60;;;5.43;;
71790;SDS011;59638;52.126;5.434;2023-10-13T00:25:53;7.13;;;5.68;;
71790;SDS011;59638;52.126;5.434;2023-10-13T00:28:26;12.83;;;6.03;;
71790;SDS011;59638;52.126;5.434;2023-10-13T00:31:01;14.68;;;6.30;;
71790;SDS011;59638;52.126;5.434;2023-10-13T00:33:40;10.93;;;4.85;;
71790;SDS011;59638;52.126;5.434;2023-10-13T00:36:08;8.80;;;5.60;;
71790;SDS011;59638;52.126;5.434;2023-10-13T00:38:43;9.23;;;5.35;;
71790;SDS011;59638;52.126;5.434;2023-10-13T00:41:14;13.13;;;5.07;;
71790;SDS011;59638;52.126;5.434;2023-10-13T00:43:46;10.52;;;5.68;;
71790;SDS011;59638;52.126;5.434;2023-10-13T00:46:34;9.52;;;5.25;;
71790;SDS011;59638;52.126;5.434;2023-10-13T00:49:04;8.35;;;4.82;;
71790;SDS011;59638;52.126;5.434;2023-10-13T00:51:31;6.07;;;4.82;;
71790;SDS011;59638;52.126;5.434;2023-10-13T00:54:01;13.37;;;5.60;;
71790;SDS011;59638;52.126;5.434;2023-10-13T00:56:33;7.93;;;4.85;;
71790;SDS011;59638;52.126;5.434;2023-10-13T00:59:00;8.52;;;5.20;;
71790;SDS011;59638;52.126;5.434;2023-10-13T01:01:29;9.43;;;5.10;;
71790;SDS011;59638;52.126;5.434;2023-10-13T01:03:59;15.85;;;6.25;;
71790;SDS011;59638;52.126;5.434;2023-10-13T01:06:26;13.70;;;5.63;;
71790;SDS011;59638;52.126;5.434;2023-10-13T01:08:58;13.80;;;4.82;;
71790;SDS011;59638;52.126;5.434;2023-10-13T01:11:51;14.23;;;6.00;;
71790;SDS011;59638;52.126;5.434;2023-10-13T01:14:21;14.48;;;6.57;;
71790;SDS011;59638;52.126;5.434;2023-10-13T01:16:53;11.35;;;6.18;;
71790;SDS011;59638;52.126;5.434;2023-10-13T01:19:21;12.60;;;6.30;;
71790;SDS011;59638;52.126;5.434;2023-10-13T01:21:51;15.43;;;7.00;;
71790;SDS011;59638;52.126;5.434;2023-10-13T01:24:28;11.50;;;6.78;;
71790;SDS011;59638;52.126;5.434;2023-10-13T01:27:04;11.77;;;6.63;;
71790;SDS011;59638;52.126;5.434;2023-10-13T01:29:44;18.02;;;7.28;;
71790;SDS011;59638;52.126;5.434;2023-10-13T01:32:17;13.67;;;7.50;;
71790;SDS011;59638;52.126;5.434;2023-10-13T01:34:45;15.18;;;7.70;;
71790;SDS011;59638;52.126;5.434;2023-10-13T01:37:15;16.50;;;7.70;;
71790;SDS011;59638;52.126;5.434;2023-10-13T01:39:42;22.20;;;8.18;;
71790;SDS011;59638;52.126;5.434;2023-10-13T01:42:13;15.20;;;7.43;;
71790;SDS011;59638;52.126;5.434;2023-10-13T01:44:46;12.27;;;7.13;;
71790;SDS011;59638;52.126;5.434;2023-10-13T01:47:12;11.60;;;6.88;;
71790;SDS011;59638;52.126;5.434;2023-10-13T01:49:39;11.80;;;6.70;;
71790;SDS011;59638;52.126;5.434;2023-10-13T01:52:09;12.00;;;7.10;;
71790;SDS011;59638;52.126;5.434;2023-10-13T01:54:42;11.27;;;6.72;;
71790;SDS011;59638;52.126;5.434;2023-10-13T01:57:11;7.00;;;5.67;;
71790;SDS011;59638;52.126;5.434;2023-10-13T01:59:44;11.13;;;6.47;;
71790;SDS011;59638;52.126;5.434;2023-10-13T02:02:15;19.90;;;7.35;;
71790;SDS011;59638;52.126;5.434;2023-10-13T02:04:53;12.32;;;6.43;;
71790;SDS011;59638;52.126;5.434;2023-10-13T02:07:24;10.10;;;6.45;;
71790;SDS011;59638;52.126;5.434;2023-10-13T02:09:56;11.83;;;6.13;;
71790;SDS011;59638;52.126;5.434;2023-10-13T02:12:23;10.85;;;6.25;;
71790;SDS011;59638;52.126;5.434;2023-10-13T02:15:02;8.50;;;5.28;;
71790;SDS011;59638;52.126;5.434;2023-10-13T02:17:31;13.20;;;5.55;;
71790;SDS011;59638;52.126;5.434;2023-10-13T02:20:08;13.77;;;6.13;;
71790;SDS011;59638;52.126;5.434;2023-10-13T02:22:41;9.23;;;5.33;;
71790;SDS011;59638;52.126;5.434;2023-10-13T02:25:16;12.50;;;5.20;;
71790;SDS011;59638;52.126;5.434;2023-10-13T02:28:01;10.68;;;4.90;;
71790;SDS011;59638;52.126;5.434;2023-10-13T02:30:28;15.20;;;5.00;;
71790;SDS011;59638;52.126;5.434;2023-10-13T02:32:55;10.38;;;5.22;;
71790;SDS011;59638;52.126;5.434;2023-10-13T02:35:22;14.57;;;6.10;;
71790;SDS011;59638;52.126;5.434;2023-10-13T02:37:56;12.80;;;5.15;;
71790;SDS011;59638;52.126;5.434;2023-10-13T02:40:25;12.43;;;5.40;;
71790;SDS011;59638;52.126;5.434;2023-10-13T02:42:52;9.35;;;4.90;;
71790;SDS011;59638;52.126;5.434;2023-10-13T02:45:18;5.97;;;4.32;;
71790;SDS011;59638;52.126;5.434;2023-10-13T02:47:49;9.20;;;4.47;;
71790;SDS011;59638;52.126;5.434;2023-10-13T02:50:37;9.35;;;4.30;;
71790;SDS011;59638;52.126;5.434;2023-10-13T02:53:06;8.48;;;4.97;;
71790;SDS011;59638;52.126;5.434;2023-10-13T02:55:48;10.65;;;4.70;;
71790;SDS011;59638;52.126;5.434;2023-10-13T02:58:23;11.77;;;4.93;;
71790;SDS011;59638;52.126;5.434;2023-10-13T03:00:49;12.37;;;4.73;;
71790;SDS011;59638;52.126;5.434;2023-10-13T03:03:16;10.18;;;4.88;;
71790;SDS011;59638;52.126;5.434;2023-10-13T03:05:45;11.13;;;5.15;;
71790;SDS011;59638;52.126;5.434;2023-10-13T03:08:12;7.32;;;4.72;;
71790;SDS011;59638;52.126;5.434;2023-10-13T03:10:44;13.38;;;5.13;;
71790;SDS011;59638;52.126;5.434;2023-10-13T03:13:15;14.70;;;5.40;;
71790;SDS011;59638;52.126;5.434;2023-10-13T03:15:42;8.13;;;4.82;;
71790;SDS011;59638;52.126;5.434;2023-10-13T03:18:13;17.55;;;5.18;;
71790;SDS011;59638;52.126;5.434;2023-10-13T03:20:45;6.50;;;3.92;;
71790;SDS011;59638;52.126;5.434;2023-10-13T03:23:16;5.65;;;5.05;;
71790;SDS011;59638;52.126;5.434;2023-10-13T03:25:43;10.70;;;4.07;;
71790;SDS011;59638;52.126;5.434;2023-10-13T03:28:09;6.82;;;4.00;;
71790;SDS011;59638;52.126;5.434;2023-10-13T03:30:40;7.90;;;4.78;;
71790;SDS011;59638;52.126;5.434;2023-10-13T03:33:09;8.45;;;3.80;;
71790;SDS011;59638;52.126;5.434;2023-10-13T03:35:38;11.32;;;4.40;;
71790;SDS011;59638;52.126;5.434;2023-10-13T03:38:09;5.97;;;3.70;;
71790;SDS011;59638;52.126;5.434;2023-10-13T03:40:43;12.00;;;4.43;;
71790;SDS011;59638;52.126;5.434;2023-10-13T03:43:22;4.00;;;3.17;;
71790;SDS011;59638;52.126;5.434;2023-10-13T03:45:50;7.78;;;3.28;;
71790;SDS011;59638;52.126;5.434;2023-10-13T03:48:34;8.00;;;3.92;;
71790;SDS011;59638;52.126;5.434;2023-10-13T03:51:18;4.83;;;2.83;;
71790;SDS011;59638;52.126;5.434;2023-10-13T03:53:44;8.70;;;2.78;;
71790;SDS011;59638;52.126;5.434;2023-10-13T03:56:21;7.50;;;3.15;;
71790;SDS011;59638;52.126;5.434;2023-10-13T03:58:57;7.47;;;2.90;;
71790;SDS011;59638;52.126;5.434;2023-10-13T04:01:51;5.35;;;3.03;;
71790;SDS011;59638;52.126;5.434;2023-10-13T04:04:18;9.73;;;3.43;;
71790;SDS011;59638;52.126;5.434;2023-10-13T04:07:04;9.20;;;3.05;;
71790;SDS011;59638;52.126;5.434;2023-10-13T04:09:34;7.65;;;3.63;;
71790;SDS011;59638;52.126;5.434;2023-10-13T04:12:13;9.85;;;3.30;;
71790;SDS011;59638;52.126;5.434;2023-10-13T04:14:40;8.15;;;3.05;;
71790;SDS011;59638;52.126;5.434;2023-10-13T04:17:26;6.93;;;3.27;;
71790;SDS011;59638;52.126;5.434;2023-10-13T04:19:54;6.28;;;3.28;;
71790;SDS011;59638;52.126;5.434;2023-10-13T04:22:39;3.83;;;2.75;;
71790;SDS011;59638;52.126;5.434;2023-10-13T04:28:05;6.07;;;3.05;;
71790;SDS011;59638;52.126;5.434;2023-10-13T04:30:44;4.80;;;3.10;;
71790;SDS011;59638;52.126;5.434;2023-10-13T04:36:04;6.25;;;2.83;;
71790;SDS011;59638;52.126;5.434;2023-10-13T04:38:46;6.75;;;2.15;;
71790;SDS011;59638;52.126;5.434;2023-10-13T04:41:32;10.30;;;2.78;;
71790;SDS011;59638;52.126;5.434;2023-10-13T04:44:11;5.80;;;2.90;;
71790;SDS011;59638;52.126;5.434;2023-10-13T04:46:54;5.18;;;2.80;;
71790;SDS011;59638;52.126;5.434;2023-10-13T04:49:40;8.02;;;2.67;;
71790;SDS011;59638;52.126;5.434;2023-10-13T04:52:09;4.30;;;2.50;;
71790;SDS011;59638;52.126;5.434;2023-10-13T04:54:41;4.38;;;2.13;;
71790;SDS011;59638;52.126;5.434;2023-10-13T04:57:12;4.73;;;2.47;;
71790;SDS011;59638;52.126;5.434;2023-10-13T04:59:57;5.13;;;2.53;;
71790;SDS011;59638;52.126;5.434;2023-10-13T05:02:36;3.90;;;1.92;;
71790;SDS011;59638;52.126;5.434;2023-10-13T05:05:10;7.40;;;2.00;;
71790;SDS011;59638;52.126;5.434;2023-10-13T05:07:40;8.43;;;1.73;;
71790;SDS011;59638;52.126;5.434;2023-10-13T05:10:25;1.93;;;1.40;;
71790;SDS011;59638;52.126;5.434;2023-10-13T05:13:10;5.00;;;2.58;;
71790;SDS011;59638;52.126;5.434;2023-10-13T05:15:55;5.35;;;2.63;;
71790;SDS011;59638;52.126;5.434;2023-10-13T05:18:40;3.40;;;1.77;;
71790;SDS011;59638;52.126;5.434;2023-10-13T05:21:26;5.32;;;1.95;;
71790;SDS011;59638;52.126;5.434;2023-10-13T05:24:11;4.40;;;2.30;;
71790;SDS011;59638;52.126;5.434;2023-10-13T05:26:56;5.75;;;2.10;;
71790;SDS011;59638;52.126;5.434;2023-10-13T05:29:41;5.93;;;3.10;;
71790;SDS011;59638;52.126;5.434;2023-10-13T05:32:27;6.65;;;2.65;;
71790;SDS011;59638;52.126;5.434;2023-10-13T05:35:13;6.35;;;2.53;;
71790;SDS011;59638;52.126;5.434;2023-10-13T05:37:58;5.53;;;2.27;;
71790;SDS011;59638;52.126;5.434;2023-10-13T05:40:53;4.10;;;2.38;;
71790;SDS011;59638;52.126;5.434;2023-10-13T05:43:41;5.32;;;2.40;;
71790;SDS011;59638;52.126;5.434;2023-10-13T05:46:26;8.18;;;2.38;;
71790;SDS011;59638;52.126;5.434;2023-10-13T05:48:53;12.48;;;2.55;;
71790;SDS011;59638;52.126;5.434;2023-10-13T05:51:27;6.47;;;2.47;;
71790;SDS011;59638;52.126;5.434;2023-10-13T05:54:09;5.22;;;2.03;;
71790;SDS011;59638;52.126;5.434;2023-10-13T05:59:25;6.80;;;1.50;;
71790;SDS011;59638;52.126;5.434;2023-10-13T06:02:12;10.32;;;2.35;;
71790;SDS011;59638;52.126;5.434;2023-10-13T06:05:00;5.07;;;1.60;;
71790;SDS011;59638;52.126;5.434;2023-10-13T06:07:47;9.57;;;1.50;;
71790;SDS011;59638;52.126;5.434;2023-10-13T06:10:32;8.68;;;1.75;;
71790;SDS011;59638;52.126;5.434;2023-10-13T06:13:17;6.88;;;2.20;;
71790;SDS011;59638;52.126;5.434;2023-10-13T06:16:06;13.30;;;2.40;;
71790;SDS011;59638;52.126;5.434;2023-10-13T06:18:52;7.53;;;1.67;;
71790;SDS011;59638;52.126;5.434;2023-10-13T06:21:37;2.80;;;2.00;;
71790;SDS011;59638;52.126;5.434;2023-10-13T06:24:22;6.40;;;2.22;;
71790;SDS011;59638;52.126;5.434;2023-10-13T06:27:07;6.18;;;1.90;;
71790;SDS011;59638;52.126;5.434;2023-10-13T06:29:52;9.18;;;2.30;;
71790;SDS011;59638;52.126;5.434;2023-10-13T06:32:22;4.53;;;2.27;;
71790;SDS011;59638;52.126;5.434;2023-10-13T06:34:53;6.03;;;1.98;;
71790;SDS011;59638;52.126;5.434;2023-10-13T06:37:24;9.18;;;2.85;;
71790;SDS011;59638;52.126;5.434;2023-10-13T06:39:52;4.65;;;2.58;;
71790;SDS011;59638;52.126;5.434;2023-10-13T06:42:39;7.45;;;2.00;;
71790;SDS011;59638;52.126;5.434;2023-10-13T06:45:09;5.30;;;2.20;;
71790;SDS011;59638;52.126;5.434;2023-10-13T06:47:38;6.78;;;2.20;;
71790;SDS011;59638;52.126;5.434;2023-10-13T06:50:09;5.38;;;2.50;;
71790;SDS011;59638;52.126;5.434;2023-10-13T06:52:45;9.77;;;3.15;;
71790;SDS011;59638;52.126;5.434;2023-10-13T06:55:15;7.00;;;2.67;;
71790;SDS011;59638;52.126;5.434;2023-10-13T06:57:54;7.33;;;3.30;;
71790;SDS011;59638;52.126;5.434;2023-10-13T07:00:26;6.75;;;3.28;;
71790;SDS011;59638;52.126;5.434;2023-10-13T07:02:56;3.53;;;2.90;;
71790;SDS011;59638;52.126;5.434;2023-10-13T07:08:05;5.07;;;3.30;;
71790;SDS011;59638;52.126;5.434;2023-10-13T07:10:32;6.47;;;3.50;;
71790;SDS011;59638;52.126;5.434;2023-10-13T07:13:11;4.28;;;2.80;;
71790;SDS011;59638;52.126;5.434;2023-10-13T07:15:40;6.18;;;3.40;;
71790;SDS011;59638;52.126;5.434;2023-10-13T07:18:13;6.82;;;3.70;;
71790;SDS011;59638;52.126;5.434;2023-10-13T07:20:42;8.23;;;3.28;;
71790;SDS011;59638;52.126;5.434;2023-10-13T07:23:12;5.63;;;3.27;;
71790;SDS011;59638;52.126;5.434;2023-10-13T07:25:56;6.35;;;3.78;;
71790;SDS011;59638;52.126;5.434;2023-10-13T07:28:29;7.70;;;3.83;;
71790;SDS011;59638;52.126;5.434;2023-10-13T07:31:03;15.15;;;3.80;;
71790;SDS011;59638;52.126;5.434;2023-10-13T07:33:29;5.55;;;3.53;;
71790;SDS011;59638;52.126;5.434;2023-10-13T07:36:01;6.90;;;3.17;;
71790;SDS011;59638;52.126;5.434;2023-10-13T07:38:37;11.70;;;3.47;;
71790;SDS011;59638;52.126;5.434;2023-10-13T07:41:09;4.13;;;3.03;;
71790;SDS011;59638;52.126;5.434;2023-10-13T07:43:36;6.80;;;2.60;;
71790;SDS011;59638;52.126;5.434;2023-10-13T07:46:03;4.78;;;2.92;;
71790;SDS011;59638;52.126;5.434;2023-10-13T07:48:36;7.10;;;3.10;;
71790;SDS011;59638;52.126;5.434;2023-10-13T07:51:05;5.95;;;2.88;;
71790;SDS011;59638;52.126;5.434;2023-10-13T07:53:52;9.00;;;2.95;;
71790;SDS011;59638;52.126;5.434;2023-10-13T07:56:19;4.30;;;2.70;;
71790;SDS011;59638;52.126;5.434;2023-10-13T07:58:47;10.90;;;3.38;;
71790;SDS011;59638;52.126;5.434;2023-10-13T08:01:19;9.20;;;2.60;;
71790;SDS011;59638;52.126;5.434;2023-10-13T08:03:46;8.82;;;2.60;;
71790;SDS011;59638;52.126;5.434;2023-10-13T08:06:14;8.05;;;2.28;;
71790;SDS011;59638;52.126;5.434;2023-10-13T08:08:46;8.05;;;2.63;;
71790;SDS011;59638;52.126;5.434;2023-10-13T08:11:17;11.38;;;2.47;;
71790;SDS011;59638;52.126;5.434;2023-10-13T08:16:33;9.70;;;2.38;;
71790;SDS011;59638;52.126;5.434;2023-10-13T08:19:13;12.52;;;3.03;;
71790;SDS011;59638;52.126;5.434;2023-10-13T08:21:45;9.85;;;2.38;;
71790;SDS011;59638;52.126;5.434;2023-10-13T08:24:20;9.52;;;3.42;;
71790;SDS011;59638;52.126;5.434;2023-10-13T08:27:05;10.17;;;3.30;;
71790;SDS011;59638;52.126;5.434;2023-10-13T08:29:52;5.80;;;2.70;;
71790;SDS011;59638;52.126;5.434;2023-10-13T08:32:21;8.52;;;2.10;;
71790;SDS011;59638;52.126;5.434;2023-10-13T08:35:02;6.00;;;2.08;;
71790;SDS011;59638;52.126;5.434;2023-10-13T08:37:30;6.28;;;2.20;;
71790;SDS011;59638;52.126;5.434;2023-10-13T08:40:14;8.23;;;2.07;;
71790;SDS011;59638;52.126;5.434;2023-10-13T08:42:51;13.40;;;2.70;;
71790;SDS011;59638;52.126;5.434;2023-10-13T08:45:29;9.75;;;2.85;;
71790;SDS011;59638;52.126;5.434;2023-10-13T08:47:57;5.82;;;1.95;;
71790;SDS011;59638;52.126;5.434;2023-10-13T08:50:43;9.70;;;2.30;;
71790;SDS011;59638;52.126;5.434;2023-10-13T08:53:15;7.17;;;2.20;;
71790;SDS011;59638;52.126;5.434;2023-10-13T08:55:58;9.90;;;2.85;;
71790;SDS011;59638;52.126;5.434;2023-10-13T08:58:35;7.00;;;2.28;;
71790;SDS011;59638;52.126;5.434;2023-10-13T09:01:26;7.82;;;2.20;;
71790;SDS011;59638;52.126;5.434;2023-10-13T09:04:15;6.95;;;2.35;;
71790;SDS011;59638;52.126;5.434;2023-10-13T09:07:02;9.67;;;2.67;;
71790;SDS011;59638;52.126;5.434;2023-10-13T09:12:01;5.95;;;2.10;;
71790;SDS011;59638;52.126;5.434;2023-10-13T09:14:36;9.57;;;2.58;;
71790;SDS011;59638;52.126;5.434;2023-10-13T09:17:05;10.77;;;2.17;;
71790;SDS011;59638;52.126;5.434;2023-10-13T09:19:51;6.73;;;2.30;;
71790;SDS011;59638;52.126;5.434;2023-10-13T09:22:22;5.03;;;2.20;;
71790;SDS011;59638;52.126;5.434;2023-10-13T09:25:02;13.20;;;3.25;;
71790;SDS011;59638;52.126;5.434;2023-10-13T09:27:32;6.78;;;2.58;;
71790;SDS011;59638;52.126;5.434;2023-10-13T09:30:00;9.68;;;2.47;;
71790;SDS011;59638;52.126;5.434;2023-10-13T09:32:47;7.70;;;2.30;;
71790;SDS011;59638;52.126;5.434;2023-10-13T09:35:28;7.53;;;2.10;;
71790;SDS011;59638;52.126;5.434;2023-10-13T09:37:59;9.20;;;2.88;;
71790;SDS011;59638;52.126;5.434;2023-10-13T09:40:30;7.43;;;2.63;;
71790;SDS011;59638;52.126;5.434;2023-10-13T09:43:04;6.03;;;2.30;;
71790;SDS011;59638;52.126;5.434;2023-10-13T09:45:35;9.97;;;2.60;;
71790;SDS011;59638;52.126;5.434;2023-10-13T09:48:10;10.50;;;2.08;;
71790;SDS011;59638;52.126;5.434;2023-10-13T09:50:43;5.75;;;2.78;;
71790;SDS011;59638;52.126;5.434;2023-10-13T09:53:17;10.60;;;2.55;;
71790;SDS011;59638;52.126;5.434;2023-10-13T09:55:46;9.85;;;2.00;;
71790;SDS011;59638;52.126;5.434;2023-10-13T09:58:16;7.47;;;2.50;;
71790;SDS011;59638;52.126;5.434;2023-10-13T10:00:54;13.88;;;3.63;;
71790;SDS011;59638;52.126;5.434;2023-10-13T10:03:24;14.35;;;2.42;;
71790;SDS011;59638;52.126;5.434;2023-10-13T10:06:06;4.03;;;2.35;;
71790;SDS011;59638;52.126;5.434;2023-10-13T10:08:42;7.90;;;2.30;;
71790;SDS011;59638;52.126;5.434;2023-10-13T10:17:06;5.10;;;2.15;;
71790;SDS011;59638;52.126;5.434;2023-10-13T10:22:24;11.02;;;2.60;;
71790;SDS011;59638;52.126;5.434;2023-10-13T10:24:56;6.67;;;2.33;;
71790;SDS011;59638;52.126;5.434;2023-10-13T10:27:28;6.30;;;2.65;;
71790;SDS011;59638;52.126;5.434;2023-10-13T10:29:56;14.00;;;2.60;;
71790;SDS011;59638;52.126;5.434;2023-10-13T10:35:05;8.40;;;2.72;;
71790;SDS011;59638;52.126;5.434;2023-10-13T10:37:41;14.53;;;2.33;;
71790;SDS011;59638;52.126;5.434;2023-10-13T10:40:16;10.07;;;1.88;;
71790;SDS011;59638;52.126;5.434;2023-10-13T10:43:00;8.02;;;2.65;;
71790;SDS011;59638;52.126;5.434;2023-10-13T10:45:54;11.20;;;2.75;;
71790;SDS011;59638;52.126;5.434;2023-10-13T10:48:27;8.90;;;2.88;;
71790;SDS011;59638;52.126;5.434;2023-10-13T10:51:01;8.07;;;2.47;;
71790;SDS011;59638;52.126;5.434;2023-10-13T10:53:40;11.63;;;3.30;;
71790;SDS011;59638;52.126;5.434;2023-10-13T10:56:10;8.90;;;3.00;;
71790;SDS011;59638;52.126;5.434;2023-10-13T10:58:49;7.35;;;2.60;;
71790;SDS011;59638;52.126;5.434;2023-10-13T11:01:23;7.63;;;3.17;;
71790;SDS011;59638;52.126;5.434;2023-10-13T11:03:55;7.20;;;2.93;;
71790;SDS011;59638;52.126;5.434;2023-10-13T11:06:35;10.35;;;2.53;;
71790;SDS011;59638;52.126;5.434;2023-10-13T11:09:09;8.95;;;3.22;;
71790;SDS011;59638;52.126;5.434;2023-10-13T11:11:47;10.30;;;2.55;;
71790;SDS011;59638;52.126;5.434;2023-10-13T11:14:24;11.25;;;3.40;;
71790;SDS011;59638;52.126;5.434;2023-10-13T11:16:52;11.53;;;2.97;;
71790;SDS011;59638;52.126;5.434;2023-10-13T11:19:36;9.85;;;2.38;;
71790;SDS011;59638;52.126;5.434;2023-10-13T11:22:17;8.65;;;3.50;;
71790;SDS011;59638;52.126;5.434;2023-10-13T11:25:08;3.90;;;2.38;;
71790;SDS011;59638;52.126;5.434;2023-10-13T11:27:38;8.88;;;2.83;;
71790;SDS011;59638;52.126;5.434;2023-10-13T11:30:17;7.10;;;2.50;;
71790;SDS011;59638;52.126;5.434;2023-10-13T11:32:58;5.93;;;2.25;;
71790;SDS011;59638;52.126;5.434;2023-10-13T11:35:32;8.63;;;3.35;;
71790;SDS011;59638;52.126;5.434;2023-10-13T11:38:39;11.80;;;2.88;;
71790;SDS011;59638;52.126;5.434;2023-10-13T11:41:13;13.20;;;3.40;;
71790;SDS011;59638;52.126;5.434;2023-10-13T11:43:42;7.87;;;2.40;;
71790;SDS011;59638;52.126;5.434;2023-10-13T11:46:20;5.35;;;2.10;;
71790;SDS011;59638;52.126;5.434;2023-10-13T11:49:03;4.53;;;2.50;;
71790;SDS011;59638;52.126;5.434;2023-10-13T11:51:43;6.15;;;2.63;;
71790;SDS011;59638;52.126;5.434;2023-10-13T11:54:14;5.20;;;2.80;;
71790;SDS011;59638;52.126;5.434;2023-10-13T11:56:45;8.20;;;2.80;;
71790;SDS011;59638;52.126;5.434;2023-10-13T11:59:12;13.65;;;2.20;;
71790;SDS011;59638;52.126;5.434;2023-10-13T12:01:45;8.63;;;3.20;;
71790;SDS011;59638;52.126;5.434;2023-10-13T12:04:31;12.38;;;2.97;;
71790;SDS011;59638;52.126;5.434;2023-10-13T12:07:15;7.65;;;2.83;;
71790;SDS011;59638;52.126;5.434;2023-10-13T12:10:00;10.80;;;2.80;;
71790;SDS011;59638;52.126;5.434;2023-10-13T12:12:27;11.25;;;2.50;;
71790;SDS011;59638;52.126;5.434;2023-10-13T12:14:54;9.25;;;4.20;;
71790;SDS011;59638;52.126;5.434;2023-10-13T12:17:22;11.73;;;3.42;;
71790;SDS011;59638;52.126;5.434;2023-10-13T12:20:06;9.00;;;3.00;;
71790;SDS011;59638;52.126;5.434;2023-10-13T12:22:36;13.83;;;2.90;;
71790;SDS011;59638;52.126;5.434;2023-10-13T12:25:09;9.50;;;3.05;;
71790;SDS011;59638;52.126;5.434;2023-10-13T12:27:54;10.32;;;2.80;;
71790;SDS011;59638;52.126;5.434;2023-10-13T12:30:24;8.93;;;3.45;;
71790;SDS011;59638;52.126;5.434;2023-10-13T12:33:15;11.32;;;2.63;;
71790;SDS011;59638;52.126;5.434;2023-10-13T12:35:59;10.07;;;2.97;;
71790;SDS011;59638;52.126;5.434;2023-10-13T12:38:33;10.32;;;2.95;;
71790;SDS011;59638;52.126;5.434;2023-10-13T12:41:23;13.55;;;3.25;;
71790;SDS011;59638;52.126;5.434;2023-10-13T12:44:08;11.40;;;3.15;;
71790;SDS011;59638;52.126;5.434;2023-10-13T12:46:53;8.18;;;2.45;;
71790;SDS011;59638;52.126;5.434;2023-10-13T12:49:39;9.97;;;2.77;;
71790;SDS011;59638;52.126;5.434;2023-10-13T12:52:09;8.18;;;2.55;;
71790;SDS011;59638;52.126;5.434;2023-10-13T12:54:55;5.95;;;2.40;;
71790;SDS011;59638;52.126;5.434;2023-10-13T12:57:27;16.33;;;3.35;;
71790;SDS011;59638;52.126;5.434;2023-10-13T12:59:54;13.80;;;2.95;;
71790;SDS011;59638;52.126;5.434;2023-10-13T13:02:21;10.70;;;3.13;;
71790;SDS011;59638;52.126;5.434;2023-10-13T13:04:55;7.53;;;3.42;;
71790;SDS011;59638;52.126;5.434;2023-10-13T13:07:32;12.45;;;2.88;;
71790;SDS011;59638;52.126;5.434;2023-10-13T13:10:13;8.43;;;3.08;;
71790;SDS011;59638;52.126;5.434;2023-10-13T13:12:41;9.70;;;2.75;;
71790;SDS011;59638;52.126;5.434;2023-10-13T13:15:08;8.17;;;3.33;;
71790;SDS011;59638;52.126;5.434;2023-10-13T13:17:35;8.60;;;2.75;;
71790;SDS011;59638;52.126;5.434;2023-10-13T13:20:03;8.75;;;3.33;;
71790;SDS011;59638;52.126;5.434;2023-10-13T13:22:37;9.98;;;3.95;;
71790;SDS011;59638;52.126;5.434;2023-10-13T13:25:04;11.77;;;3.22;;
71790;SDS011;59638;52.126;5.434;2023-10-13T13:27:34;9.10;;;3.33;;
71790;SDS011;59638;52.126;5.434;2023-10-13T13:30:03;10.20;;;3.33;;
71790;SDS011;59638;52.126;5.434;2023-10-13T13:32:38;4.85;;;2.72;;
71790;SDS011;59638;52.126;5.434;2023-10-13T13:35:07;5.68;;;2.83;;
71790;SDS011;59638;52.126;5.434;2023-10-13T13:37:35;14.63;;;3.80;;
71790;SDS011;59638;52.126;5.434;2023-10-13T13:40:04;9.53;;;3.30;;
71790;SDS011;59638;52.126;5.434;2023-10-13T13:42:44;5.50;;;2.70;;
71790;SDS011;59638;52.126;5.434;2023-10-13T13:45:15;7.43;;;2.83;;
71790;SDS011;59638;52.126;5.434;2023-10-13T13:47:53;4.50;;;2.58;;
71790;SDS011;59638;52.126;5.434;2023-10-13T13:50:23;11.00;;;2.55;;
71790;SDS011;59638;52.126;5.434;2023-10-13T13:52:53;7.03;;;4.13;;
71790;SDS011;59638;52.126;5.434;2023-10-13T13:55:22;8.02;;;2.85;;
71790;SDS011;59638;52.126;5.434;2023-10-13T13:57:50;10.18;;;4.80;;
71790;SDS011;59638;52.126;5.434;2023-10-13T14:00:17;7.53;;;3.97;;
71790;SDS011;59638;52.126;5.434;2023-10-13T14:02:51;9.43;;;3.25;;
71790;SDS011;59638;52.126;5.434;2023-10-13T14:05:18;6.83;;;2.80;;
71790;SDS011;59638;52.126;5.434;2023-10-13T14:07:45;15.32;;;3.42;;
71790;SDS011;59638;52.126;5.434;2023-10-13T14:10:16;9.85;;;4.18;;
71790;SDS011;59638;52.126;5.434;2023-10-13T14:12:59;8.30;;;2.67;;
71790;SDS011;59638;52.126;5.434;2023-10-13T14:15:41;8.30;;;2.58;;
71790;SDS011;59638;52.126;5.434;2023-10-13T14:18:10;8.40;;;2.70;;
71790;SDS011;59638;52.126;5.434;2023-10-13T14:20:44;10.10;;;2.95;;
71790;SDS011;59638;52.126;5.434;2023-10-13T14:23:10;9.13;;;3.03;;
71790;SDS011;59638;52.126;5.434;2023-10-13T14:25:40;11.65;;;3.13;;
71790;SDS011;59638;52.126;5.434;2023-10-13T14:28:10;15.25;;;3.38;;
71790;SDS011;59638;52.126;5.434;2023-10-13T14:30:44;13.17;;;2.60;;
71790;SDS011;59638;52.126;5.434;2023-10-13T14:33:11;4.43;;;2.58;;
71790;SDS011;59638;52.126;5.434;2023-10-13T14:35:37;11.05;;;3.22;;
71790;SDS011;59638;52.126;5.434;2023-10-13T14:38:04;11.02;;;4.40;;
71790;SDS011;59638;52.126;5.434;2023-10-13T14:40:30;10.45;;;3.58;;
71790;SDS011;59638;52.126;5.434;2023-10-13T14:42:57;10.83;;;3.03;;
71790;SDS011;59638;52.126;5.434;2023-10-13T14:45:23;18.10;;;2.78;;
71790;SDS011;59638;52.126;5.434;2023-10-13T14:47:50;6.13;;;2.58;;
71790;SDS011;59638;52.126;5.434;2023-10-13T14:50:19;10.57;;;3.10;;
71790;SDS011;59638;52.126;5.434;2023-10-13T14:52:46;6.68;;;3.28;;
71790;SDS011;59638;52.126;5.434;2023-10-13T14:55:14;5.67;;;2.37;;
71790;SDS011;59638;52.126;5.434;2023-10-13T14:57:48;4.60;;;2.47;;
71790;SDS011;59638;52.126;5.434;2023-10-13T15:00:17;13.73;;;2.88;;
71790;SDS011;59638;52.126;5.434;2023-10-13T15:02:53;9.02;;;2.70;;
71790;SDS011;59638;52.126;5.434;2023-10-13T15:05:21;5.25;;;3.15;;
71790;SDS011;59638;52.126;5.434;2023-10-13T15:07:48;9.63;;;2.33;;
71790;SDS011;59638;52.126;5.434;2023-10-13T15:10:17;13.38;;;3.35;;
71790;SDS011;59638;52.126;5.434;2023-10-13T15:12:44;8.32;;;3.03;;
71790;SDS011;59638;52.126;5.434;2023-10-13T15:15:15;4.97;;;2.15;;
71790;SDS011;59638;52.126;5.434;2023-10-13T15:17:46;9.50;;;2.47;;
71790;SDS011;59638;52.126;5.434;2023-10-13T15:20:13;3.13;;;1.57;;
71790;SDS011;59638;52.126;5.434;2023-10-13T15:22:45;6.97;;;3.28;;
71790;SDS011;59638;52.126;5.434;2023-10-13T15:25:16;5.13;;;2.60;;
71790;SDS011;59638;52.126;5.434;2023-10-13T15:27:58;6.43;;;2.70;;
71790;SDS011;59638;52.126;5.434;2023-10-13T15:30:29;12.75;;;3.25;;
71790;SDS011;59638;52.126;5.434;2023-10-13T15:33:22;12.13;;;3.50;;
71790;SDS011;59638;52.126;5.434;2023-10-13T15:35:51;9.23;;;2.88;;
71790;SDS011;59638;52.126;5.434;2023-10-13T15:38:17;13.27;;;3.35;;
71790;SDS011;59638;52.126;5.434;2023-10-13T15:40:47;12.82;;;3.78;;
71790;SDS011;59638;52.126;5.434;2023-10-13T15:43:20;10.32;;;2.80;;
71790;SDS011;59638;52.126;5.434;2023-10-13T15:45:46;7.87;;;2.83;;
71790;SDS011;59638;52.126;5.434;2023-10-13T15:48:13;17.95;;;3.15;;
71790;SDS011;59638;52.126;5.434;2023-10-13T15:50:45;13.38;;;3.35;;
71790;SDS011;59638;52.126;5.434;2023-10-13T15:53:12;5.72;;;2.92;;